createdAt,value
2023-11-27T00:01:41.380Z,4.50
2023-11-27T00:04:08.037Z,4.50
2023-11-27T00:06:34.711Z,4.51
2023-11-27T00:09:01.159Z,4.51
2023-11-27T00:11:27.531Z,4.50
2023-11-27T00:13:53.888Z,4.51
2023-11-27T00:16:20.337Z,4.51
2023-11-27T00:18:47.937Z,4.52
2023-11-27T00:21:14.894Z,4.53
2023-11-27T00:23:41.446Z,4.53
2023-11-27T00:26:08.799Z,4.53
2023-11-27T00:28:35.232Z,4.52
2023-11-27T00:31:01.913Z,4.53
2023-11-27T00:33:28.469Z,4.52
2023-11-27T00:35:54.872Z,4.53
2023-11-27T00:38:21.273Z,4.52
2023-11-27T00:40:47.817Z,4.51
2023-11-27T00:43:14.463Z,4.50
2023-11-27T00:45:41.076Z,4.51
2023-11-27T00:48:07.897Z,4.50
2023-11-27T00:50:34.333Z,4.51
2023-11-27T00:53:00.711Z,4.50
2023-11-27T00:55:27.151Z,4.50
2023-11-27T00:57:53.537Z,4.51
2023-11-27T01:00:20.486Z,4.50
2023-11-27T01:02:47.001Z,4.50
2023-11-27T01:05:16.384Z,4.50
2023-11-27T01:07:43.107Z,4.49
2023-11-27T01:10:09.934Z,4.48
2023-11-27T01:12:39.608Z,4.47
2023-11-27T01:15:07.688Z,4.46
2023-11-27T01:17:34.150Z,4.46
2023-11-27T01:20:00.549Z,4.42
2023-11-27T01:22:26.942Z,4.43
2023-11-27T01:24:53.442Z,4.40
2023-11-27T01:27:19.848Z,4.36
2023-11-27T01:29:46.206Z,4.35
2023-11-27T01:32:12.657Z,4.31
2023-11-27T01:34:39.059Z,4.28
2023-11-27T01:37:05.730Z,4.26
2023-11-27T01:39:32.150Z,4.22
2023-11-27T01:41:58.585Z,4.18
2023-11-27T01:44:25.012Z,4.19
2023-11-27T01:46:51.488Z,4.16
2023-11-27T01:49:19.883Z,4.17
2023-11-27T01:51:49.341Z,4.17
2023-11-27T01:54:17.213Z,4.16
2023-11-27T01:56:47.567Z,4.15
2023-11-27T01:59:14.302Z,4.14
2023-11-27T02:01:40.979Z,4.14
2023-11-27T02:04:08.246Z,4.12
2023-11-27T02:06:34.761Z,4.11
2023-11-27T02:09:01.320Z,4.11
2023-11-27T02:11:27.957Z,4.09
2023-11-27T02:13:54.747Z,4.09
2023-11-27T02:16:24.012Z,4.11
2023-11-27T02:18:50.739Z,4.11
2023-11-27T02:21:18.437Z,4.10
2023-11-27T02:23:44.854Z,4.08
2023-11-27T02:26:11.310Z,4.11
2023-11-27T02:28:38.102Z,4.09
2023-11-27T02:31:06.299Z,4.08
2023-11-27T02:33:32.958Z,4.07
2023-11-27T02:35:59.388Z,4.05
2023-11-27T02:38:25.848Z,4.05
2023-11-27T02:40:52.321Z,4.04
2023-11-27T02:43:18.813Z,4.04
2023-11-27T02:45:45.710Z,4.04
2023-11-27T02:48:12.188Z,4.03
2023-11-27T02:50:38.613Z,4.04
2023-11-27T02:53:05.231Z,4.02
2023-11-27T02:55:31.737Z,4.03
2023-11-27T02:57:58.118Z,4.03
2023-11-27T03:00:24.605Z,4.04
2023-11-27T03:02:51.195Z,4.05
2023-11-27T03:05:17.665Z,4.05
2023-11-27T03:07:44.851Z,4.04
2023-11-27T03:10:13.984Z,4.05
2023-11-27T03:12:40.372Z,4.05
2023-11-27T03:15:07.075Z,4.05
2023-11-27T03:17:33.602Z,4.06
2023-11-27T03:20:00.008Z,4.04
2023-11-27T03:22:26.520Z,4.04
2023-11-27T03:24:53.074Z,4.05
2023-11-27T03:27:19.603Z,4.05
2023-11-27T03:29:46.494Z,4.05
2023-11-27T03:32:13.041Z,4.04
2023-11-27T03:34:39.515Z,4.04
2023-11-27T03:37:05.984Z,4.05
2023-11-27T03:39:32.613Z,4.04
2023-11-27T03:41:58.995Z,4.04
2023-11-27T03:44:25.441Z,4.03
2023-11-27T03:46:51.867Z,4.04
2023-11-27T03:49:18.435Z,4.05
2023-11-27T03:51:44.916Z,4.05
2023-11-27T03:54:13.941Z,4.04
2023-11-27T03:56:40.354Z,4.05
2023-11-27T03:59:06.823Z,4.05
2023-11-27T04:01:33.448Z,4.06
2023-11-27T04:04:00.946Z,4.07
2023-11-27T04:06:33.312Z,4.07
2023-11-27T04:09:00.404Z,4.08
2023-11-27T04:11:28.393Z,4.08
2023-11-27T04:13:55.950Z,4.08
2023-11-27T04:16:23.469Z,4.06
2023-11-27T04:18:50.195Z,4.07
2023-11-27T04:21:18.386Z,4.06
2023-11-27T04:23:48.671Z,4.06
2023-11-27T04:26:16.481Z,4.07
2023-11-27T04:28:44.228Z,4.06
2023-11-27T04:31:10.970Z,4.04
2023-11-27T04:33:37.505Z,4.06
2023-11-27T04:36:04.198Z,4.05
2023-11-27T04:38:30.619Z,4.06
2023-11-27T04:40:57.023Z,4.03
2023-11-27T04:43:23.715Z,4.06
2023-11-27T04:45:50.274Z,4.03
2023-11-27T04:48:16.662Z,4.02
2023-11-27T04:50:45.066Z,4.01
2023-11-27T04:53:11.812Z,4.00
2023-11-27T04:55:38.235Z,3.98
2023-11-27T04:58:04.740Z,3.97
2023-11-27T05:00:31.231Z,3.96
2023-11-27T05:02:57.842Z,3.96
2023-11-27T05:05:24.378Z,3.95
2023-11-27T05:07:50.782Z,3.93
2023-11-27T05:10:17.234Z,3.90
2023-11-27T05:12:43.672Z,3.89
2023-11-27T05:15:10.497Z,3.86
2023-11-27T05:17:36.943Z,3.86
2023-11-27T05:20:04.809Z,3.84
2023-11-27T05:22:31.264Z,3.84
2023-11-27T05:24:57.702Z,3.81
2023-11-27T05:27:24.779Z,3.82
2023-11-27T05:29:51.130Z,3.81
2023-11-27T05:32:18.108Z,3.81
2023-11-27T05:34:44.534Z,3.81
2023-11-27T05:37:11.058Z,3.79
2023-11-27T05:39:38.355Z,3.79
2023-11-27T05:42:05.205Z,3.78
2023-11-27T05:44:32.603Z,3.78
2023-11-27T05:46:59.130Z,3.79
2023-11-27T05:49:25.646Z,3.77
2023-11-27T05:51:52.579Z,3.75
2023-11-27T05:54:19.996Z,3.73
2023-11-27T05:56:46.518Z,3.73
2023-11-27T05:59:13.126Z,3.72
2023-11-27T06:01:39.516Z,3.71
2023-11-27T06:04:05.957Z,3.69
2023-11-27T06:06:32.358Z,3.68
2023-11-27T06:08:58.762Z,3.67
2023-11-27T06:11:25.114Z,3.66
2023-11-27T06:13:51.535Z,3.66
2023-11-27T06:16:18.186Z,3.66
2023-11-27T06:18:44.733Z,3.65
2023-11-27T06:21:12.408Z,3.67
2023-11-27T06:23:39.312Z,3.69
2023-11-27T06:26:06.068Z,3.69
2023-11-27T06:28:32.642Z,3.69
2023-11-27T06:30:59.524Z,3.68
2023-11-27T06:33:27.345Z,3.68
2023-11-27T06:35:55.036Z,3.67
2023-11-27T06:38:21.680Z,3.64
2023-11-27T06:40:49.295Z,3.62
2023-11-27T06:43:17.061Z,3.63
2023-11-27T06:45:43.868Z,3.62
2023-11-27T06:48:10.449Z,3.60
2023-11-27T06:50:36.972Z,3.58
2023-11-27T06:53:03.785Z,3.55
2023-11-27T06:55:30.896Z,3.53
2023-11-27T06:57:57.579Z,3.52
2023-11-27T07:00:24.376Z,3.52
2023-11-27T07:02:51.042Z,3.51
2023-11-27T07:05:17.580Z,3.51
2023-11-27T07:07:44.121Z,3.51
2023-11-27T07:10:12.347Z,3.53
2023-11-27T07:12:38.755Z,3.50
2023-11-27T07:15:05.723Z,3.49
2023-11-27T07:17:32.102Z,3.49
2023-11-27T07:19:58.471Z,3.48
2023-11-27T07:22:25.042Z,3.49
2023-11-27T07:24:51.895Z,3.50
2023-11-27T07:27:18.819Z,3.51
2023-11-27T07:29:45.697Z,3.50
2023-11-27T07:32:12.692Z,3.50
2023-11-27T07:34:39.240Z,3.52
2023-11-27T07:37:05.716Z,3.50
2023-11-27T07:39:32.143Z,3.50
2023-11-27T07:41:58.598Z,3.50
2023-11-27T07:44:26.264Z,3.50
2023-11-27T07:46:53.162Z,3.51
2023-11-27T07:49:20.228Z,3.49
2023-11-27T07:51:47.275Z,3.50
2023-11-27T07:54:13.740Z,3.51
2023-11-27T07:56:40.379Z,3.51
2023-11-27T07:59:06.848Z,3.50
2023-11-27T08:01:33.336Z,3.53
2023-11-27T08:03:59.975Z,3.54
2023-11-27T08:06:26.427Z,3.52
2023-11-27T08:08:55.144Z,3.52
2023-11-27T08:11:34.661Z,3.53
2023-11-27T08:14:02.054Z,3.53
2023-11-27T08:16:28.678Z,3.56
2023-11-27T08:18:55.301Z,3.54
2023-11-27T08:21:21.824Z,3.53
2023-11-27T08:23:48.871Z,3.54
2023-11-27T08:26:16.347Z,3.54
2023-11-27T08:28:42.736Z,3.55
2023-11-27T08:31:10.136Z,3.54
2023-11-27T08:33:37.251Z,3.57
2023-11-27T08:36:04.650Z,3.58
2023-11-27T08:38:34.117Z,3.61
2023-11-27T08:41:00.687Z,3.61
2023-11-27T08:43:28.217Z,3.60
2023-11-27T08:45:55.094Z,3.61
2023-11-27T08:48:21.484Z,3.61
2023-11-27T08:50:48.394Z,3.61
2023-11-27T08:53:14.885Z,3.61
2023-11-27T08:55:41.487Z,3.61
2023-11-27T08:58:08.326Z,3.62
2023-11-27T09:00:36.424Z,3.63
2023-11-27T09:03:04.178Z,3.64
2023-11-27T09:05:34.682Z,3.66
2023-11-27T09:08:06.188Z,3.69
2023-11-27T09:10:33.555Z,3.70
2023-11-27T09:13:00.213Z,3.68
2023-11-27T09:15:26.691Z,3.68
2023-11-27T09:17:53.281Z,3.70
2023-11-27T09:20:19.911Z,3.72
2023-11-27T09:22:46.473Z,3.71
2023-11-27T09:25:14.238Z,3.70
2023-11-27T09:27:41.100Z,3.71
2023-11-27T09:30:08.620Z,3.73
2023-11-27T09:32:38.651Z,3.72
2023-11-27T09:35:06.754Z,3.74
2023-11-27T09:37:35.814Z,3.74
2023-11-27T09:40:04.790Z,3.75
2023-11-27T09:42:45.590Z,3.75
2023-11-27T09:45:14.872Z,3.78
2023-11-27T09:47:44.796Z,3.80
2023-11-27T09:50:14.113Z,3.82
2023-11-27T09:53:06.873Z,3.81
2023-11-27T09:55:41.624Z,3.82
2023-11-27T09:58:11.754Z,3.84
2023-11-27T10:00:42.668Z,3.82
2023-11-27T10:03:11.675Z,3.83
2023-11-27T10:05:38.733Z,3.83
2023-11-27T10:08:05.500Z,3.85
2023-11-27T10:10:32.187Z,3.84
2023-11-27T10:13:04.533Z,3.91
2023-11-27T10:15:35.992Z,3.90
2023-11-27T10:18:06.123Z,3.91
2023-11-27T10:20:33.284Z,3.96
2023-11-27T10:22:59.985Z,3.96
2023-11-27T10:25:26.546Z,3.95
2023-11-27T10:28:01.583Z,3.99
2023-11-27T10:30:31.234Z,3.97
2023-11-27T10:32:57.880Z,3.96
2023-11-27T10:35:26.650Z,3.96
2023-11-27T10:37:55.912Z,3.96
2023-11-27T10:40:27.198Z,3.96
2023-11-27T10:42:58.859Z,3.99
2023-11-27T10:45:26.563Z,4.03
2023-11-27T10:47:53.525Z,4.04
2023-11-27T10:50:21.031Z,4.05
2023-11-27T10:52:51.006Z,4.04
2023-11-27T10:55:20.034Z,4.06
2023-11-27T10:57:48.436Z,4.07
2023-11-27T11:00:33.979Z,4.06
2023-11-27T11:03:08.146Z,4.11
2023-11-27T11:05:46.689Z,4.14
2023-11-27T11:08:13.574Z,4.14
2023-11-27T11:10:41.910Z,4.18
2023-11-27T11:13:14.093Z,4.18
2023-11-27T11:16:01.615Z,4.21
2023-11-27T11:18:47.511Z,4.25
2023-11-27T11:21:40.497Z,4.23
2023-11-27T11:24:12.948Z,4.22
2023-11-27T11:26:51.517Z,4.25
2023-11-27T11:29:35.168Z,4.31
2023-11-27T11:32:03.070Z,4.33
2023-11-27T11:34:34.190Z,4.34
2023-11-27T11:37:01.677Z,4.36
2023-11-27T11:39:28.486Z,4.38
2023-11-27T11:42:05.160Z,4.38
2023-11-27T11:44:38.754Z,4.40
2023-11-27T11:47:30.193Z,4.41
2023-11-27T11:50:19.597Z,4.41
2023-11-27T11:52:48.439Z,4.38
2023-11-27T11:55:22.223Z,4.41
2023-11-27T11:57:49.709Z,4.45
2023-11-27T12:00:23.506Z,4.48
2023-11-27T12:02:55.782Z,4.50
2023-11-27T12:05:26.550Z,4.49
2023-11-27T12:07:53.205Z,4.51
2023-11-27T12:10:19.635Z,4.50
2023-11-27T12:12:50.295Z,4.53
2023-11-27T12:15:17.737Z,4.58
2023-11-27T12:17:49.910Z,4.57
2023-11-27T12:20:22.450Z,4.62
2023-11-27T12:22:49.974Z,4.63
2023-11-27T12:25:19.506Z,4.71
2023-11-27T12:27:49.447Z,4.73
2023-11-27T12:30:21.520Z,4.77
2023-11-27T12:32:52.284Z,4.77
2023-11-27T12:35:22.469Z,4.76
2023-11-27T12:37:50.281Z,4.77
2023-11-27T12:40:19.067Z,4.80
2023-11-27T12:42:49.644Z,4.77
2023-11-27T12:45:22.014Z,4.81
2023-11-27T12:47:52.722Z,4.86
2023-11-27T12:50:25.915Z,4.89
2023-11-27T12:53:04.075Z,4.89
2023-11-27T12:55:38.326Z,4.92
2023-11-27T12:58:14.647Z,4.93
2023-11-27T13:00:46.841Z,4.94
2023-11-27T13:03:20.822Z,4.91
2023-11-27T13:05:54.377Z,4.97
2023-11-27T13:08:25.087Z,4.97
2023-11-27T13:10:52.437Z,4.96
2023-11-27T13:13:22.827Z,4.93
2023-11-27T13:15:50.508Z,4.91
2023-11-27T13:18:17.280Z,4.93
2023-11-27T13:20:47.407Z,4.93
2023-11-27T13:23:14.307Z,4.90
2023-11-27T13:25:40.786Z,4.87
2023-11-27T13:28:10.220Z,4.84
2023-11-27T13:30:37.513Z,4.81
2023-11-27T13:33:14.108Z,4.81
2023-11-27T13:35:42.069Z,4.85
2023-11-27T13:38:21.411Z,4.83
2023-11-27T13:40:55.734Z,4.85
2023-11-27T13:43:26.897Z,4.89
2023-11-27T13:45:53.602Z,4.92
2023-11-27T13:48:23.430Z,4.94
2023-11-27T13:50:51.314Z,4.95
2023-11-27T13:53:18.589Z,4.97
2023-11-27T13:55:51.348Z,4.99
2023-11-27T13:58:20.602Z,4.98
2023-11-27T14:00:49.935Z,5.02
2023-11-27T14:03:23.255Z,5.00
2023-11-27T14:05:56.760Z,5.00
2023-11-27T14:08:31.208Z,5.00
2023-11-27T14:11:32.239Z,5.00
2023-11-27T14:14:11.793Z,4.98
2023-11-27T14:16:46.080Z,4.98
2023-11-27T14:19:14.423Z,4.94
2023-11-27T14:22:03.413Z,4.94
2023-11-27T14:24:48.230Z,4.91
2023-11-27T14:27:20.399Z,4.90
2023-11-27T14:29:50.308Z,4.89
2023-11-27T14:32:17.154Z,4.88
2023-11-27T14:34:47.329Z,4.88
2023-11-27T14:37:15.946Z,4.88
2023-11-27T14:39:47.660Z,4.88
2023-11-27T14:42:14.120Z,4.90
2023-11-27T14:44:40.489Z,4.90
2023-11-27T14:47:10.192Z,4.88
2023-11-27T14:49:36.669Z,4.89
2023-11-27T14:52:05.817Z,4.87
2023-11-27T14:54:33.103Z,4.88
2023-11-27T14:57:01.337Z,4.87
2023-11-27T14:59:28.083Z,4.86
2023-11-27T15:01:54.907Z,4.84
2023-11-27T15:04:21.860Z,4.83
2023-11-27T15:06:50.045Z,4.82
2023-11-27T15:09:22.779Z,4.81
2023-11-27T15:11:52.822Z,4.82
2023-11-27T15:14:20.599Z,4.81
2023-11-27T15:16:49.484Z,4.80
2023-11-27T15:19:16.172Z,4.79
2023-11-27T15:21:43.957Z,4.78
2023-11-27T15:24:10.914Z,4.76
2023-11-27T15:26:38.886Z,4.75
2023-11-27T15:29:06.382Z,4.73
2023-11-27T15:31:36.334Z,4.73
2023-11-27T15:34:12.757Z,4.72
2023-11-27T15:36:40.261Z,4.71
2023-11-27T15:39:23.838Z,4.69
2023-11-27T15:41:51.861Z,4.70
2023-11-27T15:44:19.156Z,4.68
2023-11-27T15:46:46.612Z,4.68
2023-11-27T15:49:13.188Z,4.63
2023-11-27T15:51:42.688Z,4.57
2023-11-27T15:54:09.951Z,4.53
2023-11-27T15:56:36.696Z,4.48
2023-11-27T15:59:03.920Z,4.46
2023-11-27T16:01:30.835Z,4.45
2023-11-27T16:03:57.688Z,4.42
2023-11-27T16:06:24.435Z,4.40
2023-11-27T16:08:50.878Z,4.39
2023-11-27T16:11:22.064Z,4.30
2023-11-27T16:13:48.601Z,4.22
2023-11-27T16:16:15.445Z,4.11
2023-11-27T16:18:45.637Z,4.01
2023-11-27T16:21:16.707Z,3.91
2023-11-27T16:23:43.210Z,3.81
2023-11-27T16:26:12.383Z,3.69
2023-11-27T16:28:38.786Z,3.60
2023-11-27T16:31:06.184Z,3.55
2023-11-27T16:33:34.190Z,3.46
2023-11-27T16:36:01.192Z,3.33
2023-11-27T16:38:27.787Z,3.23
2023-11-27T16:40:54.304Z,3.20
2023-11-27T16:43:20.896Z,3.19
2023-11-27T16:45:48.480Z,3.09
2023-11-27T16:48:14.955Z,2.97
2023-11-27T16:50:42.437Z,2.93
2023-11-27T16:53:12.350Z,2.93
2023-11-27T16:55:38.819Z,2.92
2023-11-27T16:58:08.260Z,2.89
2023-11-27T17:00:37.027Z,2.82
2023-11-27T17:03:05.688Z,2.71
2023-11-27T17:05:33.971Z,2.67
2023-11-27T17:08:03.811Z,2.59
2023-11-27T17:10:31.829Z,2.53
2023-11-27T17:12:59.415Z,2.54
2023-11-27T17:15:26.953Z,2.54
2023-11-27T17:17:54.242Z,2.44
2023-11-27T17:20:21.957Z,2.41
2023-11-27T17:23:00.165Z,2.40
2023-11-27T17:25:32.895Z,2.39
2023-11-27T17:27:59.866Z,2.35
2023-11-27T17:30:26.719Z,2.34
2023-11-27T17:32:53.315Z,2.31
2023-11-27T17:35:20.777Z,2.24
2023-11-27T17:37:47.550Z,2.18
2023-11-27T17:40:15.245Z,2.16
2023-11-27T17:42:42.893Z,2.14
2023-11-27T17:45:11.056Z,2.14
2023-11-27T17:47:40.066Z,2.15
2023-11-27T17:50:14.294Z,2.09
2023-11-27T17:52:44.813Z,2.05
2023-11-27T17:55:12.309Z,2.02
2023-11-27T17:57:39.048Z,2.01
2023-11-27T18:00:14.868Z,2.00
2023-11-27T18:02:42.800Z,1.97
2023-11-27T18:05:09.919Z,1.92
2023-11-27T18:07:38.441Z,1.95
2023-11-27T18:10:05.431Z,1.94
2023-11-27T18:12:32.137Z,1.89
2023-11-27T18:14:58.656Z,1.87
2023-11-27T18:17:25.155Z,1.85
2023-11-27T18:19:51.567Z,1.87
2023-11-27T18:22:18.021Z,1.82
2023-11-27T18:24:44.430Z,1.78
2023-11-27T18:27:10.858Z,1.76
2023-11-27T18:29:37.225Z,1.69
2023-11-27T18:32:05.026Z,1.66
2023-11-27T18:34:31.506Z,1.58
2023-11-27T18:36:58.032Z,1.54
2023-11-27T18:39:31.258Z,1.50
2023-11-27T18:41:58.890Z,1.50
2023-11-27T18:44:26.778Z,1.43
2023-11-27T18:46:54.222Z,1.38
2023-11-27T18:49:24.933Z,1.37
2023-11-27T18:51:57.964Z,1.38
2023-11-27T18:54:25.093Z,1.38
2023-11-27T18:56:52.102Z,1.33
2023-11-27T18:59:19.192Z,1.29
2023-11-27T19:01:45.885Z,1.22
2023-11-27T19:04:13.478Z,1.20
2023-11-27T19:06:39.874Z,1.15
2023-11-27T19:09:07.701Z,1.17
2023-11-27T19:11:34.557Z,1.15
2023-11-27T19:14:02.043Z,1.14
2023-11-27T19:16:28.560Z,1.12
2023-11-27T19:18:55.347Z,1.12
2023-11-27T19:21:22.302Z,1.09
2023-11-27T19:23:48.725Z,1.06
2023-11-27T19:26:15.298Z,1.04
2023-11-27T19:28:43.221Z,1.02
2023-11-27T19:31:09.749Z,1.01
2023-11-27T19:33:36.592Z,1.02
2023-11-27T19:36:04.564Z,1.02
2023-11-27T19:38:33.891Z,1.01
2023-11-27T19:41:07.256Z,1.06
2023-11-27T19:43:36.036Z,1.11
2023-11-27T19:46:03.249Z,1.10
2023-11-27T19:48:30.456Z,1.13
2023-11-27T19:50:56.996Z,1.17
2023-11-27T19:53:24.151Z,1.17
2023-11-27T19:55:57.832Z,1.21
2023-11-27T19:58:26.028Z,1.25
2023-11-27T20:00:52.529Z,1.31
2023-11-27T20:03:20.868Z,1.31
2023-11-27T20:05:47.725Z,1.34
2023-11-27T20:08:14.817Z,1.40
2023-11-27T20:10:41.383Z,1.44
2023-11-27T20:13:10.261Z,1.45
2023-11-27T20:15:38.527Z,1.48
2023-11-27T20:18:05.786Z,1.52
2023-11-27T20:20:32.349Z,1.53
2023-11-27T20:22:59.085Z,1.54
2023-11-27T20:25:27.118Z,1.56
2023-11-27T20:27:54.554Z,1.55
2023-11-27T20:30:21.021Z,1.58
2023-11-27T20:32:47.508Z,1.60
2023-11-27T20:35:14.005Z,1.60
2023-11-27T20:37:41.194Z,1.64
2023-11-27T20:40:10.350Z,1.64
2023-11-27T20:42:37.362Z,1.67
2023-11-27T20:45:04.780Z,1.68
2023-11-27T20:47:31.351Z,1.70
2023-11-27T20:49:57.887Z,1.70
2023-11-27T20:52:24.852Z,1.73
2023-11-27T20:54:52.056Z,1.75
2023-11-27T20:57:18.546Z,1.77
2023-11-27T20:59:45.004Z,1.77
2023-11-27T21:02:12.004Z,1.78
2023-11-27T21:04:41.977Z,1.82
2023-11-27T21:07:12.235Z,1.84
2023-11-27T21:09:39.228Z,1.88
2023-11-27T21:12:06.379Z,1.90
2023-11-27T21:14:32.750Z,1.94
2023-11-27T21:17:01.589Z,1.97
2023-11-27T21:19:30.828Z,1.99
2023-11-27T21:21:57.348Z,2.00
2023-11-27T21:24:23.916Z,2.00
2023-11-27T21:26:50.381Z,2.01
2023-11-27T21:29:16.748Z,2.00
2023-11-27T21:31:43.235Z,1.97
2023-11-27T21:34:09.681Z,2.00
2023-11-27T21:36:36.559Z,1.99
2023-11-27T21:39:04.889Z,2.01
2023-11-27T21:41:33.661Z,2.03
2023-11-27T21:44:00.595Z,2.04
2023-11-27T21:46:27.115Z,2.04
2023-11-27T21:48:53.553Z,2.06
2023-11-27T21:51:20.217Z,2.08
2023-11-27T21:53:46.681Z,2.08
2023-11-27T21:56:13.129Z,2.11
2023-11-27T21:58:39.651Z,2.13
2023-11-27T22:01:16.711Z,2.14
2023-11-27T22:03:44.556Z,2.15
2023-11-27T22:06:11.290Z,2.17
2023-11-27T22:08:37.863Z,2.21
2023-11-27T22:11:05.361Z,2.22
2023-11-27T22:13:32.243Z,2.23
2023-11-27T22:15:58.747Z,2.24
2023-11-27T22:18:25.268Z,2.26
2023-11-27T22:20:51.934Z,2.27
2023-11-27T22:23:18.415Z,2.30
2023-11-27T22:25:44.841Z,2.31
2023-11-27T22:28:11.351Z,2.32
2023-11-27T22:30:38.034Z,2.33
2023-11-27T22:33:04.548Z,2.34
2023-11-27T22:35:31.668Z,2.34
2023-11-27T22:37:58.295Z,2.32
2023-11-27T22:40:26.710Z,2.30
2023-11-27T22:42:54.683Z,2.27
2023-11-27T22:45:21.220Z,2.23
2023-11-27T22:47:47.760Z,2.23
2023-11-27T22:50:14.214Z,2.22
2023-11-27T22:52:40.774Z,2.20
2023-11-27T22:55:07.602Z,2.17
2023-11-27T22:57:34.055Z,2.17
2023-11-27T23:00:00.446Z,2.16
2023-11-27T23:02:28.063Z,2.15
2023-11-27T23:04:54.586Z,2.17
2023-11-27T23:07:21.948Z,2.14
2023-11-27T23:09:48.468Z,2.13
2023-11-27T23:12:15.452Z,2.11
2023-11-27T23:14:42.146Z,2.09
2023-11-27T23:17:08.685Z,2.10
2023-11-27T23:19:35.288Z,2.09
2023-11-27T23:22:01.712Z,2.06
2023-11-27T23:24:28.082Z,2.05
2023-11-27T23:26:54.899Z,2.06
2023-11-27T23:29:22.427Z,2.06
2023-11-27T23:31:49.883Z,2.07
2023-11-27T23:34:18.359Z,2.06
2023-11-27T23:36:44.828Z,2.04
2023-11-27T23:39:12.210Z,2.05
2023-11-27T23:41:38.621Z,2.03
2023-11-27T23:44:05.332Z,2.03
2023-11-27T23:46:32.164Z,2.01
2023-11-27T23:48:58.737Z,2.02
2023-11-27T23:51:28.969Z,2.01
2023-11-27T23:53:55.628Z,2.00
2023-11-27T23:56:22.285Z,2.01
2023-11-27T23:58:49.211Z,1.98
